sensor_id;sensor_type;location;lat;lon;timestamp;pressure;altitude;pressure_sealevel;temperature;humidity
72896;BME280;61036;53.224;6.554;2022-11-21T00:03:40;100685.44;;;0.97;100.00
72896;BME280;61036;53.224;6.554;2022-11-21T00:06:06;100687.41;;;0.91;100.00
72896;BME280;61036;53.224;6.554;2022-11-21T00:08:32;100677.53;;;0.95;100.00
72896;BME280;61036;53.224;6.554;2022-11-21T00:10:58;100673.16;;;0.94;100.00
72896;BME280;61036;53.224;6.554;2022-11-21T00:13:24;100681.56;;;0.82;100.00
72896;BME280;61036;53.224;6.554;2022-11-21T00:15:50;100666.50;;;0.82;100.00
72896;BME280;61036;53.224;6.554;2022-11-21T00:18:15;100670.19;;;0.78;100.00
72896;BME280;61036;53.224;6.554;2022-11-21T00:20:42;100656.88;;;0.80;100.00
72896;BME280;61036;53.224;6.554;2022-11-21T00:23:10;100663.91;;;0.81;100.00
72896;BME280;61036;53.224;6.554;2022-11-21T00:25:37;100649.84;;;0.79;100.00
72896;BME280;61036;53.224;6.554;2022-11-21T00:28:03;100652.94;;;0.90;100.00
72896;BME280;61036;53.224;6.554;2022-11-21T00:30:29;100657.34;;;0.91;100.00
72896;BME280;61036;53.224;6.554;2022-11-21T00:32:57;100664.19;;;0.97;100.00
72896;BME280;61036;53.224;6.554;2022-11-21T00:35:23;100661.44;;;1.00;100.00
72896;BME280;61036;53.224;6.554;2022-11-21T00:37:48;100653.63;;;0.95;100.00
72896;BME280;61036;53.224;6.554;2022-11-21T00:40:15;100652.06;;;0.89;100.00
72896;BME280;61036;53.224;6.554;2022-11-21T00:42:42;100653.81;;;0.90;100.00
72896;BME280;61036;53.224;6.554;2022-11-21T00:45:07;100646.84;;;0.88;100.00
72896;BME280;61036;53.224;6.554;2022-11-21T00:47:33;100649.47;;;0.88;100.00
72896;BME280;61036;53.224;6.554;2022-11-21T00:49:59;100642.63;;;0.82;100.00
72896;BME280;61036;53.224;6.554;2022-11-21T00:52:25;100640.44;;;0.70;100.00
72896;BME280;61036;53.224;6.554;2022-11-21T00:54:51;100651.81;;;0.72;100.00
72896;BME280;61036;53.224;6.554;2022-11-21T00:57:17;100643.88;;;0.72;100.00
72896;BME280;61036;53.224;6.554;2022-11-21T00:59:43;100642.25;;;0.68;100.00
72896;BME280;61036;53.224;6.554;2022-11-21T01:02:09;100642.25;;;0.68;100.00
72896;BME280;61036;53.224;6.554;2022-11-21T01:04:38;100649.63;;;0.60;100.00
72896;BME280;61036;53.224;6.554;2022-11-21T01:07:06;100645.75;;;0.45;100.00
72896;BME280;61036;53.224;6.554;2022-11-21T01:09:31;100655.84;;;0.35;100.00
72896;BME280;61036;53.224;6.554;2022-11-21T01:11:57;100645.56;;;0.26;100.00
72896;BME280;61036;53.224;6.554;2022-11-21T01:14:23;100650.00;;;0.26;100.00
72896;BME280;61036;53.224;6.554;2022-11-21T01:16:49;100653.72;;;0.20;100.00
72896;BME280;61036;53.224;6.554;2022-11-21T01:19:15;100659.25;;;0.14;100.00
72896;BME280;61036;53.224;6.554;2022-11-21T01:21:40;100665.53;;;0.11;100.00
72896;BME280;61036;53.224;6.554;2022-11-21T01:24:08;100663.06;;;0.05;100.00
72896;BME280;61036;53.224;6.554;2022-11-21T01:26:35;100654.25;;;0.05;100.00
72896;BME280;61036;53.224;6.554;2022-11-21T01:29:03;100655.22;;;0.02;100.00
72896;BME280;61036;53.224;6.554;2022-11-21T01:31:32;100663.28;;;-0.01;100.00
72896;BME280;61036;53.224;6.554;2022-11-21T01:33:59;100666.16;;;-0.07;100.00
72896;BME280;61036;53.224;6.554;2022-11-21T01:36:31;100662.78;;;-0.12;100.00
72896;BME280;61036;53.224;6.554;2022-11-21T01:39:00;100664.75;;;-0.17;100.00
72896;BME280;61036;53.224;6.554;2022-11-21T01:41:31;100664.13;;;-0.26;100.00
72896;BME280;61036;53.224;6.554;2022-11-21T01:44:13;100669.41;;;-0.26;100.00
72896;BME280;61036;53.224;6.554;2022-11-21T01:46:40;100667.72;;;-0.28;100.00
72896;BME280;61036;53.224;6.554;2022-11-21T01:49:13;100675.88;;;-0.34;100.00
72896;BME280;61036;53.224;6.554;2022-11-21T01:51:45;100675.13;;;-0.38;100.00
72896;BME280;61036;53.224;6.554;2022-11-21T01:57:26;100673.50;;;-0.42;100.00
72896;BME280;61036;53.224;6.554;2022-11-21T02:00:07;100677.97;;;-0.44;100.00
72896;BME280;61036;53.224;6.554;2022-11-21T02:02:36;100674.59;;;-0.49;100.00
72896;BME280;61036;53.224;6.554;2022-11-21T02:05:05;100672.00;;;-0.51;100.00
72896;BME280;61036;53.224;6.554;2022-11-21T02:07:34;100675.63;;;-0.53;100.00
72896;BME280;61036;53.224;6.554;2022-11-21T02:10:06;100672.31;;;-0.60;100.00
72896;BME280;61036;53.224;6.554;2022-11-21T02:12:47;100667.00;;;-0.60;100.00
72896;BME280;61036;53.224;6.554;2022-11-21T02:15:17;100668.78;;;-0.60;100.00
72896;BME280;61036;53.224;6.554;2022-11-21T02:17:44;100666.22;;;-0.63;100.00
72896;BME280;61036;53.224;6.554;2022-11-21T02:20:21;100659.41;;;-0.71;100.00
72896;BME280;61036;53.224;6.554;2022-11-21T02:25:39;100660.59;;;-0.81;100.00
72896;BME280;61036;53.224;6.554;2022-11-21T02:28:15;100666.03;;;-0.85;100.00
72896;BME280;61036;53.224;6.554;2022-11-21T02:30:43;100672.09;;;-0.82;100.00
72896;BME280;61036;53.224;6.554;2022-11-21T02:33:09;100663.72;;;-0.68;100.00
72896;BME280;61036;53.224;6.554;2022-11-21T02:35:38;100663.72;;;-0.68;100.00
72896;BME280;61036;53.224;6.554;2022-11-21T02:38:19;100660.03;;;-0.62;100.00
72896;BME280;61036;53.224;6.554;2022-11-21T02:41:06;100657.41;;;-0.64;100.00
72896;BME280;61036;53.224;6.554;2022-11-21T02:43:40;100653.91;;;-0.64;100.00
72896;BME280;61036;53.224;6.554;2022-11-21T02:46:07;100655.50;;;-0.59;100.00
72896;BME280;61036;53.224;6.554;2022-11-21T02:48:35;100647.84;;;-0.68;100.00
72896;BME280;61036;53.224;6.554;2022-11-21T02:51:01;100649.81;;;-0.75;100.00
72896;BME280;61036;53.224;6.554;2022-11-21T02:53:27;100649.06;;;-0.78;100.00
72896;BME280;61036;53.224;6.554;2022-11-21T02:55:54;100649.75;;;-0.73;100.00
72896;BME280;61036;53.224;6.554;2022-11-21T02:58:20;100650.38;;;-0.65;100.00
72896;BME280;61036;53.224;6.554;2022-11-21T03:00:46;100644.28;;;-0.67;100.00
72896;BME280;61036;53.224;6.554;2022-11-21T03:03:12;100651.25;;;-0.64;100.00
72896;BME280;61036;53.224;6.554;2022-11-21T03:05:39;100646.06;;;-0.67;100.00
72896;BME280;61036;53.224;6.554;2022-11-21T03:08:07;100645.13;;;-0.66;100.00
72896;BME280;61036;53.224;6.554;2022-11-21T03:10:34;100650.31;;;-0.63;100.00
72896;BME280;61036;53.224;6.554;2022-11-21T03:13:00;100637.81;;;-0.58;100.00
72896;BME280;61036;53.224;6.554;2022-11-21T03:15:33;100636.03;;;-0.58;100.00
72896;BME280;61036;53.224;6.554;2022-11-21T03:18:00;100632.53;;;-0.58;100.00
72896;BME280;61036;53.224;6.554;2022-11-21T03:20:28;100637.50;;;-0.49;100.00
72896;BME280;61036;53.224;6.554;2022-11-21T03:22:54;100635.81;;;-0.52;100.00
72896;BME280;61036;53.224;6.554;2022-11-21T03:25:20;100635.34;;;-0.63;100.00
72896;BME280;61036;53.224;6.554;2022-11-21T03:27:47;100638.19;;;-0.69;100.00
72896;BME280;61036;53.224;6.554;2022-11-21T03:30:15;100632.38;;;-0.82;100.00
72896;BME280;61036;53.224;6.554;2022-11-21T03:32:41;100635.03;;;-0.82;100.00
72896;BME280;61036;53.224;6.554;2022-11-21T03:35:08;100634.84;;;-0.76;100.00
72896;BME280;61036;53.224;6.554;2022-11-21T03:37:34;100634.59;;;-0.68;100.00
72896;BME280;61036;53.224;6.554;2022-11-21T03:39:59;100639.13;;;-0.72;100.00
72896;BME280;61036;53.224;6.554;2022-11-21T03:42:25;100640.03;;;-0.73;100.00
72896;BME280;61036;53.224;6.554;2022-11-21T03:44:51;100641.72;;;-0.70;100.00
72896;BME280;61036;53.224;6.554;2022-11-21T03:47:17;100645.22;;;-0.70;100.00
72896;BME280;61036;53.224;6.554;2022-11-21T03:49:43;100649.81;;;-0.75;100.00
72896;BME280;61036;53.224;6.554;2022-11-21T03:52:09;100645.38;;;-0.74;100.00
72896;BME280;61036;53.224;6.554;2022-11-21T03:54:34;100642.16;;;-0.84;100.00
72896;BME280;61036;53.224;6.554;2022-11-21T03:57:00;100642.47;;;-0.93;100.00
72896;BME280;61036;53.224;6.554;2022-11-21T03:59:26;100633.78;;;-0.98;100.00
72896;BME280;61036;53.224;6.554;2022-11-21T04:01:52;100633.91;;;-1.03;100.00
72896;BME280;61036;53.224;6.554;2022-11-21T04:04:18;100622.34;;;-0.99;100.00
72896;BME280;61036;53.224;6.554;2022-11-21T04:06:44;100621.59;;;-1.04;100.00
72896;BME280;61036;53.224;6.554;2022-11-21T04:09:10;100613.66;;;-1.04;100.00
72896;BME280;61036;53.224;6.554;2022-11-21T04:11:36;100612.59;;;-0.98;100.00
72896;BME280;61036;53.224;6.554;2022-11-21T04:14:03;100598.91;;;-0.84;100.00
72896;BME280;61036;53.224;6.554;2022-11-21T04:16:29;100600.38;;;-0.74;100.00
72896;BME280;61036;53.224;6.554;2022-11-21T04:18:55;100599.25;;;-0.67;100.00
72896;BME280;61036;53.224;6.554;2022-11-21T04:21:20;100592.25;;;-0.68;100.00
72896;BME280;61036;53.224;6.554;2022-11-21T04:23:50;100590.41;;;-0.66;100.00
72896;BME280;61036;53.224;6.554;2022-11-21T04:26:18;100587.66;;;-0.63;100.00
72896;BME280;61036;53.224;6.554;2022-11-21T04:28:43;100580.47;;;-0.59;100.00
72896;BME280;61036;53.224;6.554;2022-11-21T04:31:09;100577.22;;;-0.67;100.00
72896;BME280;61036;53.224;6.554;2022-11-21T04:33:35;100568.09;;;-0.59;100.00
72896;BME280;61036;53.224;6.554;2022-11-21T04:36:00;100564.53;;;-0.58;100.00
72896;BME280;61036;53.224;6.554;2022-11-21T04:38:26;100553.47;;;-0.44;100.00
72896;BME280;61036;53.224;6.554;2022-11-21T04:40:51;100563.84;;;-0.38;100.00
72896;BME280;61036;53.224;6.554;2022-11-21T04:43:17;100572.03;;;-0.19;100.00
72896;BME280;61036;53.224;6.554;2022-11-21T04:45:43;100578.88;;;-0.12;100.00
72896;BME280;61036;53.224;6.554;2022-11-21T04:48:09;100559.72;;;-0.20;100.00
72896;BME280;61036;53.224;6.554;2022-11-21T04:50:36;100537.44;;;-0.14;100.00
72896;BME280;61036;53.224;6.554;2022-11-21T04:53:02;100549.31;;;-0.26;100.00
72896;BME280;61036;53.224;6.554;2022-11-21T04:55:31;100551.53;;;-0.39;100.00
72896;BME280;61036;53.224;6.554;2022-11-21T04:57:58;100540.34;;;-0.47;100.00
72896;BME280;61036;53.224;6.554;2022-11-21T05:00:26;100528.50;;;-0.37;100.00
72896;BME280;61036;53.224;6.554;2022-11-21T05:02:51;100528.03;;;-0.48;100.00
72896;BME280;61036;53.224;6.554;2022-11-21T05:05:17;100523.72;;;-0.52;100.00
72896;BME280;61036;53.224;6.554;2022-11-21T05:07:44;100530.72;;;-0.50;100.00
72896;BME280;61036;53.224;6.554;2022-11-21T05:10:11;100525.31;;;-0.47;100.00
72896;BME280;61036;53.224;6.554;2022-11-21T05:12:37;100541.19;;;-0.47;100.00
72896;BME280;61036;53.224;6.554;2022-11-21T05:15:21;100540.47;;;-0.52;100.00
72896;BME280;61036;53.224;6.554;2022-11-21T05:17:47;100533.47;;;-0.53;100.00
72896;BME280;61036;53.224;6.554;2022-11-21T05:20:14;100527.66;;;-0.64;100.00
72896;BME280;61036;53.224;6.554;2022-11-21T05:22:43;100514.59;;;-0.68;100.00
72896;BME280;61036;53.224;6.554;2022-11-21T05:25:10;100512.81;;;-0.68;100.00
72896;BME280;61036;53.224;6.554;2022-11-21T05:27:36;100517.16;;;-0.67;100.00
72896;BME280;61036;53.224;6.554;2022-11-21T05:30:03;100521.66;;;-0.69;100.00
72896;BME280;61036;53.224;6.554;2022-11-21T05:32:30;100523.53;;;-0.73;100.00
72896;BME280;61036;53.224;6.554;2022-11-21T05:34:57;100524.53;;;-0.75;100.00
72896;BME280;61036;53.224;6.554;2022-11-21T05:37:22;100533.31;;;-0.75;100.00
72896;BME280;61036;53.224;6.554;2022-11-21T05:39:48;100544.72;;;-0.73;100.00
72896;BME280;61036;53.224;6.554;2022-11-21T05:42:14;100542.69;;;-0.64;100.00
72896;BME280;61036;53.224;6.554;2022-11-21T05:44:40;100545.97;;;-0.58;100.00
72896;BME280;61036;53.224;6.554;2022-11-21T05:47:06;100546.09;;;-0.61;100.00
72896;BME280;61036;53.224;6.554;2022-11-21T05:49:32;100547.31;;;-0.71;100.00
72896;BME280;61036;53.224;6.554;2022-11-21T05:51:58;100551.13;;;-0.80;100.00
72896;BME280;61036;53.224;6.554;2022-11-21T05:54:23;100540.66;;;-0.83;100.00
72896;BME280;61036;53.224;6.554;2022-11-21T05:56:52;100538.97;;;-0.85;100.00
72896;BME280;61036;53.224;6.554;2022-11-21T05:59:17;100530.19;;;-0.87;100.00
72896;BME280;61036;53.224;6.554;2022-11-21T06:01:43;100525.09;;;-0.94;100.00
72896;BME280;61036;53.224;6.554;2022-11-21T06:04:28;100518.06;;;-0.93;100.00
72896;BME280;61036;53.224;6.554;2022-11-21T06:06:53;100523.19;;;-0.88;100.00
72896;BME280;61036;53.224;6.554;2022-11-21T06:09:19;100524.88;;;-0.86;100.00
72896;BME280;61036;53.224;6.554;2022-11-21T06:11:44;100530.38;;;-0.92;100.00
72896;BME280;61036;53.224;6.554;2022-11-21T06:14:09;100531.31;;;-0.95;100.00
72896;BME280;61036;53.224;6.554;2022-11-21T06:16:35;100527.16;;;-1.02;100.00
72896;BME280;61036;53.224;6.554;2022-11-21T06:19:01;100524.25;;;-0.94;100.00
72896;BME280;61036;53.224;6.554;2022-11-21T06:21:28;100519.44;;;-1.09;100.00
72896;BME280;61036;53.224;6.554;2022-11-21T06:23:58;100514.69;;;-0.98;100.00
72896;BME280;61036;53.224;6.554;2022-11-21T06:26:25;100517.38;;;-1.00;100.00
72896;BME280;61036;53.224;6.554;2022-11-21T06:28:53;100513.84;;;-1.00;100.00
72896;BME280;61036;53.224;6.554;2022-11-21T06:31:24;100519.06;;;-0.97;100.00
72896;BME280;61036;53.224;6.554;2022-11-21T06:33:56;100525.94;;;-0.92;100.00
72896;BME280;61036;53.224;6.554;2022-11-21T06:36:22;100526.78;;;-0.91;100.00
72896;BME280;61036;53.224;6.554;2022-11-21T06:38:48;100519.88;;;-0.95;100.00
72896;BME280;61036;53.224;6.554;2022-11-21T06:41:23;100520.63;;;-0.92;100.00
72896;BME280;61036;53.224;6.554;2022-11-21T06:43:49;100526.22;;;-1.01;100.00
72896;BME280;61036;53.224;6.554;2022-11-21T06:46:15;100517.25;;;-0.97;100.00
72896;BME280;61036;53.224;6.554;2022-11-21T06:48:41;100505.72;;;-0.94;100.00
72896;BME280;61036;53.224;6.554;2022-11-21T06:51:18;100510.91;;;-0.91;100.00
72896;BME280;61036;53.224;6.554;2022-11-21T06:53:45;100516.00;;;-0.85;100.00
72896;BME280;61036;53.224;6.554;2022-11-21T06:56:10;100522.22;;;-0.86;100.00
72896;BME280;61036;53.224;6.554;2022-11-21T06:58:36;100524.91;;;-0.87;100.00
72896;BME280;61036;53.224;6.554;2022-11-21T07:01:06;100532.91;;;-0.89;100.00
72896;BME280;61036;53.224;6.554;2022-11-21T07:03:33;100529.53;;;-0.94;100.00
72896;BME280;61036;53.224;6.554;2022-11-21T07:06:00;100526.84;;;-0.93;100.00
72896;BME280;61036;53.224;6.554;2022-11-21T07:08:30;100535.66;;;-0.92;100.00
72896;BME280;61036;53.224;6.554;2022-11-21T07:11:04;100530.28;;;-0.90;100.00
72896;BME280;61036;53.224;6.554;2022-11-21T07:13:30;100535.47;;;-0.86;100.00
72896;BME280;61036;53.224;6.554;2022-11-21T07:16:01;100535.69;;;-0.94;100.00
72896;BME280;61036;53.224;6.554;2022-11-21T07:18:34;100537.69;;;-1.00;100.00
72896;BME280;61036;53.224;6.554;2022-11-21T07:21:03;100540.50;;;-1.05;100.00
72896;BME280;61036;53.224;6.554;2022-11-21T07:23:35;100541.97;;;-0.96;100.00
72896;BME280;61036;53.224;6.554;2022-11-21T07:26:02;100547.88;;;-0.88;100.00
72896;BME280;61036;53.224;6.554;2022-11-21T07:28:29;100544.91;;;-0.79;100.00
72896;BME280;61036;53.224;6.554;2022-11-21T07:30:57;100551.88;;;-0.75;100.00
72896;BME280;61036;53.224;6.554;2022-11-21T07:33:24;100545.53;;;-0.71;100.00
72896;BME280;61036;53.224;6.554;2022-11-21T07:35:50;100545.22;;;-0.61;100.00
72896;BME280;61036;53.224;6.554;2022-11-21T07:38:16;100541.06;;;-0.68;100.00
72896;BME280;61036;53.224;6.554;2022-11-21T07:40:42;100530.38;;;-0.65;100.00
72896;BME280;61036;53.224;6.554;2022-11-21T07:43:09;100528.47;;;-0.62;100.00
72896;BME280;61036;53.224;6.554;2022-11-21T07:45:37;100526.47;;;-0.55;100.00
72896;BME280;61036;53.224;6.554;2022-11-21T07:48:06;100521.03;;;-0.51;100.00
72896;BME280;61036;53.224;6.554;2022-11-21T07:50:32;100520.66;;;-0.40;100.00
72896;BME280;61036;53.224;6.554;2022-11-21T07:53:00;100505.56;;;-0.13;100.00
72896;BME280;61036;53.224;6.554;2022-11-21T07:55:27;100505.28;;;-0.05;100.00
72896;BME280;61036;53.224;6.554;2022-11-21T07:57:57;100494.94;;;-0.13;100.00
72896;BME280;61036;53.224;6.554;2022-11-21T08:00:24;100506.84;;;-0.25;100.00
72896;BME280;61036;53.224;6.554;2022-11-21T08:02:50;100497.16;;;-0.01;100.00
72896;BME280;61036;53.224;6.554;2022-11-21T08:05:17;100501.03;;;0.60;100.00
72896;BME280;61036;53.224;6.554;2022-11-21T08:07:42;100488.78;;;1.01;100.00
72896;BME280;61036;53.224;6.554;2022-11-21T08:10:10;100488.22;;;1.15;100.00
72896;BME280;61036;53.224;6.554;2022-11-21T08:12:36;100490.19;;;1.10;100.00
72896;BME280;61036;53.224;6.554;2022-11-21T08:15:04;100480.63;;;1.26;100.00
72896;BME280;61036;53.224;6.554;2022-11-21T08:17:31;100475.09;;;1.10;100.00
72896;BME280;61036;53.224;6.554;2022-11-21T08:20:00;100466.91;;;1.37;100.00
72896;BME280;61036;53.224;6.554;2022-11-21T08:22:26;100469.09;;;0.85;100.00
72896;BME280;61036;53.224;6.554;2022-11-21T08:24:53;100469.03;;;0.64;100.00
72896;BME280;61036;53.224;6.554;2022-11-21T08:27:20;100454.50;;;0.51;100.00
72896;BME280;61036;53.224;6.554;2022-11-21T08:29:46;100461.72;;;0.48;100.00
72896;BME280;61036;53.224;6.554;2022-11-21T08:32:12;100450.94;;;0.52;100.00
72896;BME280;61036;53.224;6.554;2022-11-21T08:34:38;100451.41;;;0.63;100.00
72896;BME280;61036;53.224;6.554;2022-11-21T08:37:04;100450.38;;;0.88;100.00
72896;BME280;61036;53.224;6.554;2022-11-21T08:39:30;100442.31;;;1.52;100.00
72896;BME280;61036;53.224;6.554;2022-11-21T08:41:57;100441.47;;;2.10;100.00
72896;BME280;61036;53.224;6.554;2022-11-21T08:44:32;100446.50;;;1.97;100.00
72896;BME280;61036;53.224;6.554;2022-11-21T08:46:58;100450.34;;;1.71;100.00
72896;BME280;61036;53.224;6.554;2022-11-21T08:49:24;100458.66;;;1.23;100.00
72896;BME280;61036;53.224;6.554;2022-11-21T08:51:50;100456.38;;;1.35;100.00
72896;BME280;61036;53.224;6.554;2022-11-21T08:54:21;100457.53;;;1.28;100.00
72896;BME280;61036;53.224;6.554;2022-11-21T08:56:47;100464.31;;;1.15;100.00
72896;BME280;61036;53.224;6.554;2022-11-21T08:59:13;100459.38;;;1.26;100.00
72896;BME280;61036;53.224;6.554;2022-11-21T09:01:39;100461.78;;;0.90;100.00
72896;BME280;61036;53.224;6.554;2022-11-21T09:04:05;100458.72;;;0.79;100.00
72896;BME280;61036;53.224;6.554;2022-11-21T09:06:31;100456.81;;;0.82;100.00
72896;BME280;61036;53.224;6.554;2022-11-21T09:08:56;100455.19;;;1.00;100.00
72896;BME280;61036;53.224;6.554;2022-11-21T09:11:22;100451.94;;;0.94;100.00
72896;BME280;61036;53.224;6.554;2022-11-21T09:13:50;100446.84;;;1.09;100.00
72896;BME280;61036;53.224;6.554;2022-11-21T09:16:34;100444.50;;;1.02;100.00
72896;BME280;61036;53.224;6.554;2022-11-21T09:19:19;100435.13;;;0.93;100.00
72896;BME280;61036;53.224;6.554;2022-11-21T09:21:50;100433.28;;;0.95;100.00
72896;BME280;61036;53.224;6.554;2022-11-21T09:24:16;100425.31;;;0.95;100.00
72896;BME280;61036;53.224;6.554;2022-11-21T09:26:43;100424.78;;;1.07;100.00
72896;BME280;61036;53.224;6.554;2022-11-21T09:29:08;100429.88;;;0.91;100.00
72896;BME280;61036;53.224;6.554;2022-11-21T09:31:38;100418.06;;;0.99;100.00
72896;BME280;61036;53.224;6.554;2022-11-21T09:34:03;100423.06;;;1.06;100.00
72896;BME280;61036;53.224;6.554;2022-11-21T09:36:29;100419.56;;;1.06;100.00
72896;BME280;61036;53.224;6.554;2022-11-21T09:38:55;100418.94;;;0.99;100.00
72896;BME280;61036;53.224;6.554;2022-11-21T09:47:01;100409.31;;;0.97;100.00
72896;BME280;61036;53.224;6.554;2022-11-21T09:49:29;100399.94;;;1.29;100.00
72896;BME280;61036;53.224;6.554;2022-11-21T09:52:01;100397.66;;;1.42;100.00
72896;BME280;61036;53.224;6.554;2022-11-21T09:54:32;100392.94;;;1.28;100.00
72896;BME280;61036;53.224;6.554;2022-11-21T09:57:02;100397.09;;;1.33;100.00
72896;BME280;61036;53.224;6.554;2022-11-21T09:59:33;100395.59;;;1.28;100.00
72896;BME280;61036;53.224;6.554;2022-11-21T10:02:00;100383.31;;;1.65;100.00
72896;BME280;61036;53.224;6.554;2022-11-21T10:04:28;100381.72;;;1.60;100.00
72896;BME280;61036;53.224;6.554;2022-11-21T10:13:01;100349.75;;;2.38;100.00
72896;BME280;61036;53.224;6.554;2022-11-21T10:25:55;100320.34;;;2.22;100.00
72896;BME280;61036;53.224;6.554;2022-11-21T10:28:35;100316.91;;;2.37;100.00
72896;BME280;61036;53.224;6.554;2022-11-21T10:31:07;100325.63;;;2.41;100.00
72896;BME280;61036;53.224;6.554;2022-11-21T10:33:35;100323.84;;;2.05;100.00
72896;BME280;61036;53.224;6.554;2022-11-21T10:38:43;100322.63;;;1.93;100.00
72896;BME280;61036;53.224;6.554;2022-11-21T10:41:35;100317.56;;;2.06;100.00
72896;BME280;61036;53.224;6.554;2022-11-21T10:44:24;100324.41;;;2.12;100.00
72896;BME280;61036;53.224;6.554;2022-11-21T10:47:17;100309.94;;;1.98;100.00
72896;BME280;61036;53.224;6.554;2022-11-21T10:50:14;100312.34;;;1.86;100.00
72896;BME280;61036;53.224;6.554;2022-11-21T10:56:00;100307.41;;;1.78;100.00
72896;BME280;61036;53.224;6.554;2022-11-21T11:01:29;100303.00;;;1.96;100.00
72896;BME280;61036;53.224;6.554;2022-11-21T11:06:37;100290.88;;;2.08;100.00
72896;BME280;61036;53.224;6.554;2022-11-21T11:09:03;100293.22;;;2.33;100.00
72896;BME280;61036;53.224;6.554;2022-11-21T11:11:29;100286.72;;;2.21;100.00
72896;BME280;61036;53.224;6.554;2022-11-21T11:14:02;100290.44;;;2.53;100.00
72896;BME280;61036;53.224;6.554;2022-11-21T11:16:30;100278.84;;;2.71;100.00
72896;BME280;61036;53.224;6.554;2022-11-21T11:21:29;100268.25;;;2.70;100.00
72896;BME280;61036;53.224;6.554;2022-11-21T11:26:34;100257.00;;;2.47;100.00
72896;BME280;61036;53.224;6.554;2022-11-21T11:29:15;100252.66;;;2.80;100.00
72896;BME280;61036;53.224;6.554;2022-11-21T11:31:42;100246.16;;;2.85;100.00
72896;BME280;61036;53.224;6.554;2022-11-21T11:34:12;100243.06;;;3.10;100.00
72896;BME280;61036;53.224;6.554;2022-11-21T11:39:38;100222.81;;;2.90;100.00
72896;BME280;61036;53.224;6.554;2022-11-21T11:42:18;100228.16;;;2.73;100.00
72896;BME280;61036;53.224;6.554;2022-11-21T11:48:06;100211.09;;;3.10;100.00
72896;BME280;61036;53.224;6.554;2022-11-21T11:50:40;100214.28;;;3.33;100.00
72896;BME280;61036;53.224;6.554;2022-11-21T11:53:17;100193.41;;;3.41;100.00
72896;BME280;61036;53.224;6.554;2022-11-21T11:56:07;100198.41;;;3.31;100.00
72896;BME280;61036;53.224;6.554;2022-11-21T11:58:51;100196.34;;;3.68;100.00
72896;BME280;61036;53.224;6.554;2022-11-21T12:04:16;100179.06;;;3.59;100.00
72896;BME280;61036;53.224;6.554;2022-11-21T12:07:00;100178.97;;;3.45;100.00
72896;BME280;61036;53.224;6.554;2022-11-21T12:09:51;100177.94;;;3.32;100.00
72896;BME280;61036;53.224;6.554;2022-11-21T12:12:37;100164.69;;;3.30;100.00
72896;BME280;61036;53.224;6.554;2022-11-21T12:18:06;100155.94;;;3.44;100.00
72896;BME280;61036;53.224;6.554;2022-11-21T12:23:08;100151.13;;;3.35;100.00
72896;BME280;61036;53.224;6.554;2022-11-21T12:25:40;100140.78;;;3.13;100.00
72896;BME280;61036;53.224;6.554;2022-11-21T12:28:23;100142.00;;;3.07;100.00
72896;BME280;61036;53.224;6.554;2022-11-21T12:33:36;100133.81;;;2.94;100.00
72896;BME280;61036;53.224;6.554;2022-11-21T12:36:31;100136.06;;;3.02;100.00
72896;BME280;61036;53.224;6.554;2022-11-21T12:50:19;100095.59;;;3.11;100.00
72896;BME280;61036;53.224;6.554;2022-11-21T12:53:19;100090.53;;;3.23;100.00
72896;BME280;61036;53.224;6.554;2022-11-21T12:56:12;100083.75;;;3.17;100.00
72896;BME280;61036;53.224;6.554;2022-11-21T12:58:47;100086.13;;;3.21;100.00
72896;BME280;61036;53.224;6.554;2022-11-21T13:01:30;100082.94;;;3.31;100.00
72896;BME280;61036;53.224;6.554;2022-11-21T13:04:14;100084.22;;;3.39;100.00
72896;BME280;61036;53.224;6.554;2022-11-21T13:06:43;100086.22;;;3.36;100.00
72896;BME280;61036;53.224;6.554;2022-11-21T13:09:16;100080.66;;;3.55;100.00
72896;BME280;61036;53.224;6.554;2022-11-21T13:11:59;100070.03;;;3.39;100.00
72896;BME280;61036;53.224;6.554;2022-11-21T13:14:44;100066.84;;;3.48;100.00
72896;BME280;61036;53.224;6.554;2022-11-21T13:17:27;100071.91;;;3.53;100.00
72896;BME280;61036;53.224;6.554;2022-11-21T13:20:36;100062.16;;;3.37;100.00
72896;BME280;61036;53.224;6.554;2022-11-21T13:23:39;100062.16;;;3.37;100.00
72896;BME280;61036;53.224;6.554;2022-11-21T13:28:49;100056.72;;;3.39;100.00
72896;BME280;61036;53.224;6.554;2022-11-21T13:31:30;100063.84;;;3.38;100.00
72896;BME280;61036;53.224;6.554;2022-11-21T13:33:56;100071.84;;;3.38;100.00
72896;BME280;61036;53.224;6.554;2022-11-21T13:46:57;100055.25;;;3.33;100.00
72896;BME280;61036;53.224;6.554;2022-11-21T13:49:30;100051.31;;;3.25;100.00
72896;BME280;61036;53.224;6.554;2022-11-21T13:52:03;100049.88;;;3.19;100.00
72896;BME280;61036;53.224;6.554;2022-11-21T13:57:28;100033.63;;;3.24;100.00
72896;BME280;61036;53.224;6.554;2022-11-21T14:03:03;100018.41;;;3.26;100.00
72896;BME280;61036;53.224;6.554;2022-11-21T14:08:23;100016.13;;;3.34;100.00
72896;BME280;61036;53.224;6.554;2022-11-21T14:10:53;100002.25;;;3.29;100.00
72896;BME280;61036;53.224;6.554;2022-11-21T14:13:24;99998.38;;;3.34;100.00
72896;BME280;61036;53.224;6.554;2022-11-21T14:18:42;99985.06;;;3.34;100.00
72896;BME280;61036;53.224;6.554;2022-11-21T14:21:21;99976.28;;;3.32;100.00
72896;BME280;61036;53.224;6.554;2022-11-21T14:23:55;99974.16;;;3.23;100.00
72896;BME280;61036;53.224;6.554;2022-11-21T14:26:22;99982.09;;;3.09;100.00
72896;BME280;61036;53.224;6.554;2022-11-21T14:28:50;99978.47;;;3.10;100.00
72896;BME280;61036;53.224;6.554;2022-11-21T14:31:16;99974.03;;;3.10;100.00
72896;BME280;61036;53.224;6.554;2022-11-21T14:33:43;99970.47;;;3.10;100.00
72896;BME280;61036;53.224;6.554;2022-11-21T14:36:16;99965.56;;;3.48;100.00
72896;BME280;61036;53.224;6.554;2022-11-21T14:38:51;99963.41;;;3.25;100.00